<?xml version="1.0" encoding="utf-8"?>
<gpx xmlns:xsi="http://www.w3.org/2001/XMLSchema-instance" xmlns:xsd="http://www.w3.org/2001/XMLSchema" version="1.1" creator="Shapelink.com" xmlns="http://www.topografix.com/GPX/1/1" xmlns:gpxtpx="http://www.garmin.com/xmlschemas/TrackPointExtension/v1">
  <metadata>
    <name>Gåing 0.70 km, 2012-03-30</name>
    <desc></desc>
    <author><name>Mikael Blom</name></author> 
    <time>2012-03-30T17:36:52Z</time>
  </metadata>
  <trk>
    <name>Gåing 0.70 km, 2012-03-30</name>
    <trkseg>
      <trkpt lat="59.9802595" lon="17.7389155">
        <ele>15.0377</ele>
        <time>2012-03-30T17:36:52Z</time>
      </trkpt>
      <trkpt lat="59.9802674" lon="17.7387969">
        <ele>29.4575</ele>
        <time>2012-03-30T17:36:55Z</time>
      </trkpt>
      <trkpt lat="59.9801706" lon="17.7386018">
        <ele>62.1423</ele>
        <time>2012-03-30T17:37:01Z</time>
      </trkpt>
      <trkpt lat="59.9802234" lon="17.7386312">
        <ele>59.2584</ele>
        <time>2012-03-30T17:37:05Z</time>
      </trkpt>
      <trkpt lat="59.980443" lon="17.7387606">
        <ele>36.6675</ele>
        <time>2012-03-30T17:37:16Z</time>
      </trkpt>
      <trkpt lat="59.9805049" lon="17.7387176">
        <ele>43.8773</ele>
        <time>2012-03-30T17:37:22Z</time>
      </trkpt>
      <trkpt lat="59.9805819" lon="17.7386804">
        <ele>47.7225</ele>
        <time>2012-03-30T17:37:27Z</time>
      </trkpt>
      <trkpt lat="59.9806445" lon="17.7386649">
        <ele>46.7612</ele>
        <time>2012-03-30T17:37:31Z</time>
      </trkpt>
      <trkpt lat="59.9806911" lon="17.7386493">
        <ele>47.2418</ele>
        <time>2012-03-30T17:37:34Z</time>
      </trkpt>
      <trkpt lat="59.9807693" lon="17.7386275">
        <ele>47.7225</ele>
        <time>2012-03-30T17:37:39Z</time>
      </trkpt>
      <trkpt lat="59.9808118" lon="17.738616">
        <ele>49.1646</ele>
        <time>2012-03-30T17:37:41Z</time>
      </trkpt>
      <trkpt lat="59.9809264" lon="17.7385617">
        <ele>47.2418</ele>
        <time>2012-03-30T17:37:48Z</time>
      </trkpt>
      <trkpt lat="59.981025" lon="17.7385472">
        <ele>51.5679</ele>
        <time>2012-03-30T17:37:53Z</time>
      </trkpt>
      <trkpt lat="59.9811609" lon="17.7384867">
        <ele>51.0872</ele>
        <time>2012-03-30T17:38:01Z</time>
      </trkpt>
      <trkpt lat="59.98118" lon="17.7384854">
        <ele>51.5679</ele>
        <time>2012-03-30T17:38:02Z</time>
      </trkpt>
      <trkpt lat="59.9812845" lon="17.7384877">
        <ele>55.8938</ele>
        <time>2012-03-30T17:38:08Z</time>
      </trkpt>
      <trkpt lat="59.9814845" lon="17.7384287">
        <ele>65.5071</ele>
        <time>2012-03-30T17:38:18Z</time>
      </trkpt>
      <trkpt lat="59.9815876" lon="17.7383758">
        <ele>64.5457</ele>
        <time>2012-03-30T17:38:25Z</time>
      </trkpt>
      <trkpt lat="59.9816727" lon="17.7383317">
        <ele>63.1036</ele>
        <time>2012-03-30T17:38:30Z</time>
      </trkpt>
      <trkpt lat="59.9817348" lon="17.738308">
        <ele>65.9877</ele>
        <time>2012-03-30T17:38:34Z</time>
      </trkpt>
      <trkpt lat="59.9818178" lon="17.7382845">
        <ele>66.4683</ele>
        <time>2012-03-30T17:38:39Z</time>
      </trkpt>
      <trkpt lat="59.9818328" lon="17.7382761">
        <ele>63.5844</ele>
        <time>2012-03-30T17:38:41Z</time>
      </trkpt>
      <trkpt lat="59.9819163" lon="17.7382585">
        <ele>58.2971</ele>
        <time>2012-03-30T17:38:46Z</time>
      </trkpt>
      <trkpt lat="59.9820266" lon="17.7382002">
        <ele>56.8551</ele>
        <time>2012-03-30T17:38:52Z</time>
      </trkpt>
      <trkpt lat="59.9820403" lon="17.7381953">
        <ele>57.3358</ele>
        <time>2012-03-30T17:38:53Z</time>
      </trkpt>
      <trkpt lat="59.9821227" lon="17.7381447">
        <ele>56.3745</ele>
        <time>2012-03-30T17:38:59Z</time>
      </trkpt>
      <trkpt lat="59.9821781" lon="17.7381298">
        <ele>58.7777</ele>
        <time>2012-03-30T17:39:02Z</time>
      </trkpt>
      <trkpt lat="59.9822893" lon="17.7380653">
        <ele>59.7391</ele>
        <time>2012-03-30T17:39:10Z</time>
      </trkpt>
      <trkpt lat="59.9823648" lon="17.738022">
        <ele>58.2971</ele>
        <time>2012-03-30T17:39:15Z</time>
      </trkpt>
      <trkpt lat="59.982455" lon="17.7380234">
        <ele>60.2197</ele>
        <time>2012-03-30T17:39:20Z</time>
      </trkpt>
      <trkpt lat="59.9825264" lon="17.7380054">
        <ele>57.8165</ele>
        <time>2012-03-30T17:39:26Z</time>
      </trkpt>
      <trkpt lat="59.9825399" lon="17.7380156">
        <ele>56.8551</ele>
        <time>2012-03-30T17:39:27Z</time>
      </trkpt>
      <trkpt lat="59.9826075" lon="17.7380033">
        <ele>57.8165</ele>
        <time>2012-03-30T17:39:30Z</time>
      </trkpt>
      <trkpt lat="59.9827144" lon="17.7380001">
        <ele>56.8551</ele>
        <time>2012-03-30T17:39:36Z</time>
      </trkpt>
      <trkpt lat="59.9828015" lon="17.7379764">
        <ele>56.3745</ele>
        <time>2012-03-30T17:39:41Z</time>
      </trkpt>
      <trkpt lat="59.9828951" lon="17.7380261">
        <ele>59.7391</ele>
        <time>2012-03-30T17:39:47Z</time>
      </trkpt>
      <trkpt lat="59.9830285" lon="17.7380442">
        <ele>62.1423</ele>
        <time>2012-03-30T17:39:54Z</time>
      </trkpt>
      <trkpt lat="59.9831553" lon="17.7380733">
        <ele>63.5844</ele>
        <time>2012-03-30T17:40:00Z</time>
      </trkpt>
      <trkpt lat="59.9832278" lon="17.738069">
        <ele>59.2584</ele>
        <time>2012-03-30T17:40:05Z</time>
      </trkpt>
      <trkpt lat="59.9832925" lon="17.7380861">
        <ele>56.3745</ele>
        <time>2012-03-30T17:40:10Z</time>
      </trkpt>
      <trkpt lat="59.9833319" lon="17.7380899">
        <ele>56.3745</ele>
        <time>2012-03-30T17:40:13Z</time>
      </trkpt>
      <trkpt lat="59.9834272" lon="17.7380727">
        <ele>57.3358</ele>
        <time>2012-03-30T17:40:18Z</time>
      </trkpt>
      <trkpt lat="59.9835381" lon="17.7380314">
        <ele>56.8551</ele>
        <time>2012-03-30T17:40:25Z</time>
      </trkpt>
      <trkpt lat="59.9836406" lon="17.7380007">
        <ele>63.1036</ele>
        <time>2012-03-30T17:40:30Z</time>
      </trkpt>
      <trkpt lat="59.9837494" lon="17.7379743">
        <ele>69.3523</ele>
        <time>2012-03-30T17:40:35Z</time>
      </trkpt>
      <trkpt lat="59.9838447" lon="17.7379201">
        <ele>70.3135</ele>
        <time>2012-03-30T17:40:41Z</time>
      </trkpt>
      <trkpt lat="59.9839782" lon="17.7378846">
        <ele>74.6395</ele>
        <time>2012-03-30T17:40:48Z</time>
      </trkpt>
      <trkpt lat="59.9840639" lon="17.7378707">
        <ele>69.8329</ele>
        <time>2012-03-30T17:40:54Z</time>
      </trkpt>
      <trkpt lat="59.9841037" lon="17.7378872">
        <ele>72.7169</ele>
        <time>2012-03-30T17:40:56Z</time>
      </trkpt>
      <trkpt lat="59.9841928" lon="17.7378581">
        <ele>74.6395</ele>
        <time>2012-03-30T17:41:02Z</time>
      </trkpt>
      <trkpt lat="59.9842113" lon="17.7378613">
        <ele>74.6395</ele>
        <time>2012-03-30T17:41:03Z</time>
      </trkpt>
      <trkpt lat="59.9842538" lon="17.7378669">
        <ele>74.1588</ele>
        <time>2012-03-30T17:41:06Z</time>
      </trkpt>
      <trkpt lat="59.9843203" lon="17.7378608">
        <ele>68.8716</ele>
        <time>2012-03-30T17:41:11Z</time>
      </trkpt>
      <trkpt lat="59.9843568" lon="17.7378909">
        <ele>63.1036</ele>
        <time>2012-03-30T17:41:15Z</time>
      </trkpt>
      <trkpt lat="59.984412" lon="17.7379307">
        <ele>61.181</ele>
        <time>2012-03-30T17:41:18Z</time>
      </trkpt>
      <trkpt lat="59.9844856" lon="17.7379467">
        <ele>59.2584</ele>
        <time>2012-03-30T17:41:24Z</time>
      </trkpt>
      <trkpt lat="59.9845544" lon="17.7379504">
        <ele>57.8165</ele>
        <time>2012-03-30T17:41:28Z</time>
      </trkpt>
      <trkpt lat="59.9845995" lon="17.7379506">
        <ele>60.2197</ele>
        <time>2012-03-30T17:41:31Z</time>
      </trkpt>
      <trkpt lat="59.9846864" lon="17.7379609">
        <ele>59.2584</ele>
        <time>2012-03-30T17:41:37Z</time>
      </trkpt>
      <trkpt lat="59.9847238" lon="17.7379899">
        <ele>59.2584</ele>
        <time>2012-03-30T17:41:40Z</time>
      </trkpt>
      <trkpt lat="59.9848216" lon="17.7380329">
        <ele>58.7777</ele>
        <time>2012-03-30T17:41:46Z</time>
      </trkpt>
      <trkpt lat="59.9849258" lon="17.7380655">
        <ele>61.181</ele>
        <time>2012-03-30T17:41:52Z</time>
      </trkpt>
      <trkpt lat="59.9849574" lon="17.7380691">
        <ele>62.6229</ele>
        <time>2012-03-30T17:41:54Z</time>
      </trkpt>
      <trkpt lat="59.9850377" lon="17.7380836">
        <ele>65.9877</ele>
        <time>2012-03-30T17:41:58Z</time>
      </trkpt>
      <trkpt lat="59.9851411" lon="17.7380748">
        <ele>64.5457</ele>
        <time>2012-03-30T17:42:05Z</time>
      </trkpt>
      <trkpt lat="59.9852258" lon="17.7381063">
        <ele>61.181</ele>
        <time>2012-03-30T17:42:11Z</time>
      </trkpt>
      <trkpt lat="59.9852977" lon="17.7381174">
        <ele>55.4131</ele>
        <time>2012-03-30T17:42:16Z</time>
      </trkpt>
      <trkpt lat="59.9853558" lon="17.7381461">
        <ele>52.0486</ele>
        <time>2012-03-30T17:42:21Z</time>
      </trkpt>
    </trkseg>
  </trk>
</gpx>